Terminal Aerodrome Forecast
Issued by NWS Charleston, WV

Current Version | Previous Version | Graphics & Text | Print | Product List | Glossary On
Versions: 1 2 3 4 5 6 7 8 9 10 11 12 13 14 15 16 17 18 19 20 21 22 23 24 25 26
000
FTUS41 KRLX 182336
TAFBKW
TAF
KBKW 182336Z 1900/1924 13008KT P6SM FEW250
     FM190800 15010G17KT 6SM -RA OVC040
     FM191100 16011G19KT 2SM -RA BR BKN025
     FM191500 17009G16KT P6SM BKN045
     FM191700 18009G16KT P6SM BKN250
     FM192100 20011G19KT P6SM SCT040=

USA.gov is the U.S. government's official web portal to all federal, state and local government web resources and services.